createdAt,value
2018-04-29T00:02:14.028Z,6.90
2018-04-29T00:04:41.492Z,4.90
2018-04-29T00:07:09.772Z,5.80
2018-04-29T00:09:37.220Z,5.30
2018-04-29T00:12:04.679Z,5.13
2018-04-29T00:14:32.144Z,5.20
2018-04-29T00:16:59.602Z,5.80
2018-04-29T00:19:27.192Z,6.73
2018-04-29T00:21:54.706Z,5.37
2018-04-29T00:24:22.232Z,6.43
2018-04-29T00:26:49.786Z,5.33
2018-04-29T00:29:17.273Z,5.33
2018-04-29T00:31:44.731Z,5.37
2018-04-29T00:34:12.353Z,4.53
2018-04-29T00:36:39.798Z,5.40
2018-04-29T00:39:07.280Z,5.07
2018-04-29T00:41:34.744Z,5.67
2018-04-29T00:44:02.208Z,4.77
2018-04-29T00:46:29.842Z,4.77
2018-04-29T00:48:57.311Z,5.37
2018-04-29T00:54:24.096Z,5.63
2018-04-29T00:56:51.577Z,5.90
2018-04-29T00:59:19.046Z,6.43
2018-04-29T01:01:47.283Z,5.87
2018-04-29T01:04:14.860Z,5.90
2018-04-29T01:06:42.322Z,5.57
2018-04-29T01:09:10.589Z,5.40
2018-04-29T01:11:38.055Z,5.23
2018-04-29T01:14:06.476Z,5.10
2018-04-29T01:16:33.984Z,5.10
2018-04-29T01:19:02.224Z,5.93
2018-04-29T01:21:29.725Z,5.07
2018-04-29T01:23:57.976Z,6.10
2018-04-29T01:26:25.443Z,5.70
2018-04-29T01:28:52.924Z,5.47
2018-04-29T01:31:21.157Z,6.40
2018-04-29T01:33:48.651Z,6.07
2018-04-29T01:36:16.890Z,5.70
2018-04-29T01:38:44.361Z,5.10
2018-04-29T01:41:13.327Z,6.10
2018-04-29T01:43:40.860Z,5.93
2018-04-29T01:46:08.425Z,6.07
2018-04-29T01:48:35.888Z,6.07
2018-04-29T01:51:03.338Z,5.40
2018-04-29T01:53:30.814Z,5.93
2018-04-29T01:55:58.272Z,5.30
2018-04-29T01:58:25.726Z,6.07
2018-04-29T02:00:53.194Z,6.00
2018-04-29T02:03:21.439Z,5.30
2018-04-29T02:05:48.944Z,6.50
2018-04-29T02:08:16.408Z,5.47
2018-04-29T02:10:43.869Z,6.40
2018-04-29T02:13:12.090Z,6.40
2018-04-29T02:15:39.619Z,6.27
2018-04-29T02:18:07.211Z,6.27
2018-04-29T02:20:34.696Z,5.93
2018-04-29T02:23:02.164Z,6.90
2018-04-29T02:25:29.695Z,4.90
2018-04-29T02:27:57.201Z,6.17
2018-04-29T02:30:24.689Z,5.83
2018-04-29T02:32:52.161Z,5.67
2018-04-29T02:35:19.643Z,5.83
2018-04-29T02:37:47.107Z,6.23
2018-04-29T02:40:14.776Z,6.30
2018-04-29T02:42:42.325Z,5.33
2018-04-29T02:45:09.888Z,6.23
2018-04-29T02:47:37.354Z,6.10
2018-04-29T02:50:05.679Z,5.97
2018-04-29T02:52:33.203Z,5.83
2018-04-29T02:55:01.551Z,6.20
2018-04-29T02:57:29.013Z,6.70
2018-04-29T02:59:56.524Z,6.30
2018-04-29T03:02:24.031Z,6.87
2018-04-29T03:04:52.298Z,6.40
2018-04-29T03:07:19.971Z,6.87
2018-04-29T03:09:47.523Z,6.70
2018-04-29T03:12:15.700Z,7.07
2018-04-29T03:14:43.244Z,6.60
2018-04-29T03:17:10.726Z,6.30
2018-04-29T03:19:38.955Z,6.40
2018-04-29T03:22:06.424Z,6.43
2018-04-29T03:24:33.884Z,6.33
2018-04-29T03:27:01.458Z,7.17
2018-04-29T03:29:30.508Z,6.80
2018-04-29T03:31:58.003Z,6.63
2018-04-29T03:34:25.466Z,6.97
2018-04-29T03:36:52.938Z,6.00
2018-04-29T03:39:21.944Z,5.10
2018-04-29T03:41:50.554Z,6.00
2018-04-29T03:44:18.046Z,7.10
2018-04-29T03:46:45.682Z,7.30
2018-04-29T03:49:13.147Z,8.97
2018-04-29T03:51:40.607Z,6.80
2018-04-29T03:54:08.463Z,5.90
2018-04-29T03:56:36.018Z,6.60
2018-04-29T03:59:15.292Z,6.20
2018-04-29T04:01:54.809Z,6.50
2018-04-29T04:04:22.282Z,6.90
2018-04-29T04:06:49.854Z,6.80
2018-04-29T04:09:17.417Z,6.70
2018-04-29T04:11:45.722Z,6.27
2018-04-29T04:14:13.191Z,7.43
2018-04-29T04:16:40.664Z,6.57
2018-04-29T04:19:08.248Z,7.10
2018-04-29T04:21:35.705Z,6.67
2018-04-29T04:24:03.240Z,7.30
2018-04-29T04:26:30.843Z,6.37
2018-04-29T04:28:59.064Z,6.43
2018-04-29T04:31:26.534Z,6.67
2018-04-29T04:33:54.790Z,7.00
2018-04-29T04:36:22.261Z,7.77
2018-04-29T04:38:49.745Z,7.33
2018-04-29T04:41:17.207Z,7.87
2018-04-29T04:43:44.680Z,7.37
2018-04-29T04:46:12.903Z,6.80
2018-04-29T04:48:40.376Z,6.10
2018-04-29T04:51:07.848Z,6.60
2018-04-29T04:53:35.394Z,7.77
2018-04-29T04:56:02.863Z,7.40
2018-04-29T04:58:30.347Z,7.07
2018-04-29T05:00:58.580Z,7.10
2018-04-29T05:03:26.061Z,7.40
2018-04-29T05:05:53.598Z,7.30
2018-04-29T05:08:21.157Z,7.17
2018-04-29T05:10:48.630Z,7.80
2018-04-29T05:13:16.095Z,7.40
2018-04-29T05:15:43.565Z,7.60
2018-04-29T05:18:11.803Z,7.03
2018-04-29T05:20:39.302Z,7.10
2018-04-29T05:23:07.543Z,7.20
2018-04-29T05:25:35.164Z,7.60
2018-04-29T05:28:03.430Z,7.63
2018-04-29T05:30:30.894Z,7.63
2018-04-29T05:32:58.454Z,7.20
2018-04-29T05:35:25.950Z,8.83
2018-04-29T05:37:53.421Z,9.00
2018-04-29T05:40:20.907Z,8.03
2018-04-29T05:42:48.358Z,7.90
2018-04-29T05:45:15.841Z,7.77
2018-04-29T05:47:43.330Z,8.00
2018-04-29T05:50:10.816Z,8.53
2018-04-29T05:52:39.057Z,7.80
2018-04-29T05:55:06.537Z,8.80
2018-04-29T05:57:35.516Z,7.37
2018-04-29T06:00:02.981Z,7.20
2018-04-29T06:02:30.446Z,7.00
2018-04-29T06:04:58.916Z,7.70
2018-04-29T06:07:26.475Z,7.60
2018-04-29T06:09:55.473Z,6.43
2018-04-29T06:12:24.464Z,7.10
2018-04-29T06:14:51.976Z,6.67
2018-04-29T06:17:19.491Z,6.50
2018-04-29T06:19:47.128Z,6.23
2018-04-29T06:22:14.704Z,6.60
2018-04-29T06:24:42.162Z,5.90
2018-04-29T06:27:09.814Z,8.40
2018-04-29T06:29:38.044Z,8.07
2018-04-29T06:32:05.656Z,8.90
2018-04-29T06:34:33.118Z,7.83
2018-04-29T06:37:01.387Z,7.17
2018-04-29T06:39:28.944Z,7.07
2018-04-29T06:41:56.416Z,6.40
2018-04-29T06:44:24.652Z,5.53
2018-04-29T06:46:52.295Z,6.40
2018-04-29T06:49:20.462Z,6.40
2018-04-29T06:51:47.936Z,5.47
2018-04-29T06:54:15.415Z,5.97
2018-04-29T06:56:42.885Z,4.70
2018-04-29T06:59:10.807Z,5.80
2018-04-29T07:01:38.387Z,4.83
2018-04-29T07:04:06.045Z,5.20
2018-04-29T07:06:33.519Z,5.07
2018-04-29T07:09:01.097Z,6.10
2018-04-29T07:11:29.540Z,4.80
2018-04-29T07:13:57.083Z,5.20
2018-04-29T07:16:24.602Z,4.73
2018-04-29T07:18:52.996Z,4.80
2018-04-29T07:21:20.656Z,6.40
2018-04-29T07:23:48.227Z,5.43
2018-04-29T07:26:15.800Z,5.13
2018-04-29T07:28:43.344Z,5.40
2018-04-29T07:31:11.236Z,5.23
2018-04-29T07:33:38.775Z,5.60
2018-04-29T07:36:06.296Z,4.60
2018-04-29T07:38:34.641Z,4.20
2018-04-29T07:41:02.217Z,4.20
2018-04-29T07:43:29.886Z,4.37
2018-04-29T07:45:57.443Z,4.00
2018-04-29T07:48:25.009Z,4.40
2018-04-29T07:50:53.324Z,4.03
2018-04-29T07:53:20.959Z,4.27
2018-04-29T07:55:49.736Z,4.10
2018-04-29T07:58:18.181Z,4.10
2018-04-29T08:00:45.727Z,4.17
2018-04-29T08:03:14.017Z,4.17
2018-04-29T08:05:41.477Z,3.83
2018-04-29T08:08:08.954Z,3.97
2018-04-29T08:10:36.459Z,3.63
2018-04-29T08:13:03.916Z,3.60
2018-04-29T08:15:31.429Z,4.07
2018-04-29T08:17:58.830Z,3.17
2018-04-29T08:20:26.289Z,3.07
2018-04-29T08:22:53.742Z,3.23
2018-04-29T08:25:22.120Z,3.13
2018-04-29T08:27:49.628Z,3.40
2018-04-29T08:30:18.868Z,3.00
2018-04-29T08:32:46.333Z,2.80
2018-04-29T08:35:13.791Z,3.10
2018-04-29T08:37:41.267Z,2.80
2018-04-29T08:40:08.746Z,2.80
2018-04-29T08:42:36.208Z,2.40
2018-04-29T08:45:03.667Z,2.83
2018-04-29T08:47:32.630Z,3.20
2018-04-29T08:50:00.166Z,3.03
2018-04-29T08:52:27.717Z,2.80
2018-04-29T08:54:55.210Z,3.67
2018-04-29T08:57:22.672Z,2.90
2018-04-29T09:02:22.718Z,2.43
2018-04-29T09:04:50.181Z,2.67
2018-04-29T09:07:17.734Z,2.50
2018-04-29T09:09:45.265Z,2.10
2018-04-29T09:12:12.725Z,3.00
2018-04-29T09:14:40.311Z,2.27
2018-04-29T09:17:07.765Z,2.00
2018-04-29T09:19:35.240Z,2.30
2018-04-29T09:22:03.498Z,2.00
2018-04-29T09:24:30.973Z,2.10
2018-04-29T09:26:59.200Z,2.30
2018-04-29T09:29:26.671Z,1.50
2018-04-29T09:31:54.132Z,2.00
2018-04-29T09:34:21.702Z,1.93
2018-04-29T09:36:50.008Z,2.20
2018-04-29T09:39:17.427Z,2.43
2018-04-29T09:41:45.012Z,2.50
2018-04-29T09:44:12.456Z,2.47
2018-04-29T09:46:40.722Z,2.33
2018-04-29T09:49:08.179Z,2.80
2018-04-29T09:51:35.649Z,3.00
2018-04-29T09:54:03.965Z,2.50
2018-04-29T09:56:31.424Z,2.80
2018-04-29T09:58:58.882Z,3.00
2018-04-29T10:01:26.339Z,3.57
2018-04-29T10:03:53.805Z,2.70
2018-04-29T10:06:21.261Z,2.53
2018-04-29T10:08:48.737Z,2.77
2018-04-29T10:11:16.196Z,2.93
2018-04-29T10:13:43.661Z,2.37
2018-04-29T10:16:11.115Z,2.50
2018-04-29T10:18:38.583Z,2.20
2018-04-29T10:21:06.048Z,2.67
2018-04-29T10:23:34.262Z,2.27
2018-04-29T10:26:01.736Z,2.33
2018-04-29T10:28:29.209Z,2.70
2018-04-29T10:30:57.653Z,2.10
2018-04-29T10:33:25.147Z,2.30
2018-04-29T10:35:52.606Z,2.60
2018-04-29T10:38:20.075Z,2.50
2018-04-29T10:40:47.644Z,3.10
2018-04-29T10:43:15.506Z,2.43
2018-04-29T10:45:42.971Z,2.50
2018-04-29T10:48:11.186Z,2.07
2018-04-29T10:50:38.674Z,2.40
2018-04-29T10:53:06.239Z,2.90
2018-04-29T10:55:33.781Z,2.73
2018-04-29T10:58:01.298Z,4.00
2018-04-29T11:00:28.756Z,2.53
2018-04-29T11:02:56.221Z,2.50
2018-04-29T11:05:23.742Z,2.67
2018-04-29T11:07:51.191Z,2.70
2018-04-29T11:10:20.171Z,2.90
2018-04-29T11:12:47.803Z,2.53
2018-04-29T11:15:15.649Z,2.60
2018-04-29T11:17:43.097Z,2.50
2018-04-29T11:20:10.566Z,3.13
2018-04-29T11:22:38.043Z,3.00
2018-04-29T11:25:05.547Z,2.70
2018-04-29T11:27:33.008Z,2.97
2018-04-29T11:30:01.266Z,3.33
2018-04-29T11:32:28.718Z,3.27
2018-04-29T11:34:56.194Z,2.83
2018-04-29T11:37:24.413Z,2.27
2018-04-29T11:39:51.961Z,3.10
2018-04-29T11:42:19.522Z,3.20
2018-04-29T11:44:47.128Z,2.13
2018-04-29T11:47:14.588Z,2.30
2018-04-29T11:49:42.059Z,2.50
2018-04-29T11:52:10.282Z,2.80
2018-04-29T11:54:37.829Z,2.10
2018-04-29T11:57:05.337Z,2.87
2018-04-29T11:59:32.879Z,2.40
2018-04-29T12:02:00.352Z,2.30
2018-04-29T12:04:27.986Z,2.63
2018-04-29T12:06:55.461Z,2.47
2018-04-29T12:09:22.911Z,2.63
2018-04-29T12:11:50.384Z,2.57
2018-04-29T12:14:18.621Z,2.00
2018-04-29T12:16:46.086Z,1.80
2018-04-29T12:19:13.542Z,2.40
2018-04-29T12:21:41.012Z,2.60
2018-04-29T12:24:08.466Z,1.80
2018-04-29T12:26:35.926Z,2.47
2018-04-29T12:29:03.388Z,2.30
2018-04-29T12:31:30.908Z,2.13
2018-04-29T12:33:58.404Z,2.40
2018-04-29T12:36:25.847Z,2.30
2018-04-29T12:38:53.312Z,2.50
2018-04-29T12:41:20.869Z,2.50
2018-04-29T12:43:48.328Z,1.77
2018-04-29T12:46:15.787Z,2.17
2018-04-29T12:48:43.601Z,2.17
2018-04-29T12:51:11.122Z,2.37
2018-04-29T12:53:40.814Z,2.33
2018-04-29T12:56:08.370Z,2.10
2018-04-29T12:58:35.846Z,2.10
2018-04-29T13:01:04.088Z,2.33
2018-04-29T13:03:31.595Z,2.30
2018-04-29T13:05:59.830Z,2.10
2018-04-29T13:08:27.294Z,2.20
2018-04-29T13:10:54.759Z,2.30
2018-04-29T13:13:22.306Z,2.50
2018-04-29T13:15:49.776Z,2.00
2018-04-29T13:18:17.227Z,2.20
2018-04-29T13:20:45.453Z,2.20
2018-04-29T13:23:12.912Z,2.10
2018-04-29T13:25:40.427Z,2.23
2018-04-29T13:28:08.691Z,2.07
2018-04-29T13:30:36.252Z,2.17
2018-04-29T13:33:03.705Z,2.37
2018-04-29T13:35:31.176Z,2.20
2018-04-29T13:37:58.630Z,1.90
2018-04-29T13:40:26.079Z,2.27
2018-04-29T13:42:54.322Z,2.80
2018-04-29T13:45:21.766Z,2.50
2018-04-29T13:47:49.242Z,2.10
2018-04-29T13:50:16.709Z,2.03
2018-04-29T13:52:44.184Z,2.70
2018-04-29T13:55:11.743Z,2.00
2018-04-29T13:57:39.321Z,2.23
2018-04-29T14:00:07.559Z,2.33
2018-04-29T14:02:35.016Z,2.27
2018-04-29T14:05:02.476Z,2.50
2018-04-29T14:07:30.044Z,2.37
2018-04-29T14:09:57.498Z,2.30
2018-04-29T14:12:26.490Z,2.30
2018-04-29T14:14:55.478Z,2.50
2018-04-29T14:17:22.959Z,2.00
2018-04-29T14:19:51.238Z,2.07
2018-04-29T14:22:18.807Z,2.70
2018-04-29T14:24:46.222Z,2.50
2018-04-29T14:27:13.692Z,2.77
2018-04-29T14:29:42.660Z,2.60
2018-04-29T14:32:10.136Z,2.47
2018-04-29T14:34:37.756Z,2.70
2018-04-29T14:37:05.439Z,2.47
2018-04-29T14:39:32.913Z,2.40
2018-04-29T14:42:00.490Z,2.73
2018-04-29T14:44:27.981Z,4.03
2018-04-29T14:46:55.550Z,3.97
2018-04-29T14:49:23.058Z,2.80
2018-04-29T14:51:50.515Z,4.07
2018-04-29T14:54:17.965Z,2.70
2018-04-29T14:56:45.422Z,2.50
2018-04-29T14:59:13.686Z,3.07
2018-04-29T15:01:41.154Z,2.93
2018-04-29T15:04:08.612Z,2.70
2018-04-29T15:06:37.243Z,2.63
2018-04-29T15:09:04.751Z,3.07
2018-04-29T15:11:32.310Z,2.60
2018-04-29T15:14:01.275Z,3.50
2018-04-29T15:16:28.738Z,2.50
2018-04-29T15:18:59.908Z,2.60
2018-04-29T15:21:27.460Z,2.90
2018-04-29T15:23:56.440Z,3.10
2018-04-29T15:26:23.905Z,2.67
2018-04-29T15:28:51.484Z,3.37
2018-04-29T15:31:18.930Z,2.70
2018-04-29T15:33:46.396Z,2.60
2018-04-29T15:36:13.878Z,2.80
2018-04-29T15:38:41.488Z,2.70
2018-04-29T15:41:09.059Z,2.73
2018-04-29T15:43:36.614Z,2.80
2018-04-29T15:46:04.072Z,3.37
2018-04-29T15:48:31.571Z,2.73
2018-04-29T15:50:59.019Z,2.90
2018-04-29T15:53:27.320Z,2.90
2018-04-29T15:55:54.776Z,2.80
2018-04-29T15:58:22.302Z,2.37
2018-04-29T16:00:50.610Z,2.93
2018-04-29T16:03:18.111Z,3.40
2018-04-29T16:05:46.333Z,3.40
2018-04-29T16:08:13.847Z,2.40
2018-04-29T16:10:42.063Z,2.70
2018-04-29T16:13:09.580Z,2.73
2018-04-29T16:15:37.041Z,2.83
2018-04-29T16:18:04.542Z,2.57
2018-04-29T16:20:32.052Z,3.30
2018-04-29T16:23:00.278Z,3.37
2018-04-29T16:25:27.809Z,2.73
2018-04-29T16:27:56.109Z,3.07
2018-04-29T16:30:23.800Z,2.80
2018-04-29T16:32:51.418Z,3.00
2018-04-29T16:35:19.191Z,3.57
2018-04-29T16:37:46.705Z,2.80
2018-04-29T16:40:14.208Z,3.00
2018-04-29T16:42:41.739Z,2.70
2018-04-29T16:45:10.030Z,2.97
2018-04-29T16:47:38.253Z,3.10
2018-04-29T16:50:05.763Z,3.53
2018-04-29T16:52:33.287Z,3.47
2018-04-29T16:55:00.788Z,3.20
2018-04-29T16:57:28.314Z,2.50
2018-04-29T16:59:55.934Z,2.60
2018-04-29T17:02:23.428Z,2.90
2018-04-29T17:04:50.964Z,3.00
2018-04-29T17:07:18.429Z,2.83
2018-04-29T17:09:45.891Z,3.30
2018-04-29T17:12:13.438Z,3.20
2018-04-29T17:14:41.065Z,3.07
2018-04-29T17:17:08.758Z,3.20
2018-04-29T17:19:36.309Z,3.40
2018-04-29T17:22:03.899Z,2.83
2018-04-29T17:24:31.467Z,3.47
2018-04-29T17:26:59.806Z,2.90
2018-04-29T17:29:27.514Z,3.47
2018-04-29T17:31:54.977Z,3.23
2018-04-29T17:34:23.288Z,3.17
2018-04-29T17:36:50.766Z,3.73
2018-04-29T17:39:18.258Z,3.10
2018-04-29T17:41:46.897Z,3.30
2018-04-29T17:44:14.479Z,3.27
2018-04-29T17:46:41.886Z,2.87
2018-04-29T17:49:09.382Z,3.10
2018-04-29T17:51:37.004Z,3.37
2018-04-29T17:54:04.584Z,2.90
2018-04-29T17:56:32.160Z,2.93
2018-04-29T17:58:59.653Z,3.40
2018-04-29T18:01:28.056Z,3.23
2018-04-29T18:03:55.705Z,3.10
2018-04-29T18:06:24.136Z,2.90
2018-04-29T18:08:51.805Z,3.73
2018-04-29T18:11:19.369Z,3.57
2018-04-29T18:13:47.706Z,3.30
2018-04-29T18:16:15.194Z,4.60
2018-04-29T18:18:42.685Z,3.93
2018-04-29T18:21:11.340Z,3.40
2018-04-29T18:23:38.841Z,3.40
2018-04-29T18:26:06.330Z,3.70
2018-04-29T18:28:33.846Z,3.93
2018-04-29T18:31:02.330Z,3.80
2018-04-29T18:33:30.592Z,3.80
2018-04-29T18:35:58.985Z,4.00
2018-04-29T18:38:26.477Z,4.03
2018-04-29T18:40:53.980Z,4.10
2018-04-29T18:43:21.453Z,3.70
2018-04-29T18:45:49.797Z,3.43
2018-04-29T18:48:17.372Z,4.10
2018-04-29T18:50:44.916Z,3.33
2018-04-29T18:53:13.064Z,3.47
2018-04-29T18:55:40.532Z,4.03
2018-04-29T18:58:08.118Z,3.30
2018-04-29T19:00:35.802Z,3.77
2018-04-29T19:03:05.295Z,4.07
2018-04-29T19:05:45.686Z,3.77
2018-04-29T19:08:13.308Z,4.27
2018-04-29T19:10:40.835Z,3.47
2018-04-29T19:13:08.425Z,3.77
2018-04-29T19:15:36.664Z,3.33
2018-04-29T19:18:04.147Z,4.90
2018-04-29T19:20:31.683Z,4.27
2018-04-29T19:22:59.142Z,3.30
2018-04-29T19:25:26.721Z,3.73
2018-04-29T19:27:54.191Z,3.83
2018-04-29T19:30:22.430Z,3.40
2018-04-29T19:32:49.902Z,4.03
2018-04-29T19:35:17.375Z,3.30
2018-04-29T19:37:45.630Z,3.37
2018-04-29T19:40:13.107Z,3.47
2018-04-29T19:42:40.573Z,3.30
2018-04-29T19:45:08.808Z,3.67
2018-04-29T19:47:36.394Z,4.27
2018-04-29T19:50:03.844Z,3.13
2018-04-29T19:52:31.310Z,3.57
2018-04-29T19:54:59.640Z,3.40
2018-04-29T19:57:27.104Z,3.33
2018-04-29T19:59:55.483Z,4.20
2018-04-29T20:02:23.211Z,4.43
2018-04-29T20:04:50.819Z,3.77
2018-04-29T20:07:18.424Z,4.03
2018-04-29T20:09:45.962Z,4.43
2018-04-29T20:12:13.444Z,4.07
2018-04-29T20:14:40.894Z,4.27
2018-04-29T20:17:08.360Z,3.53
2018-04-29T20:19:35.884Z,4.60
2018-04-29T20:22:03.387Z,3.70
2018-04-29T20:24:30.854Z,4.20
2018-04-29T20:26:58.344Z,4.03
2018-04-29T20:29:25.966Z,3.83
2018-04-29T20:31:53.612Z,3.70
2018-04-29T20:34:22.389Z,3.77
2018-04-29T20:36:50.710Z,3.30
2018-04-29T20:39:18.185Z,4.23
2018-04-29T20:41:45.657Z,3.63
2018-04-29T20:44:13.195Z,4.03
2018-04-29T20:46:40.672Z,3.20
2018-04-29T20:49:08.128Z,3.50
2018-04-29T20:51:35.659Z,3.87
2018-04-29T20:54:03.191Z,3.70
2018-04-29T20:56:30.658Z,3.97
2018-04-29T20:58:58.204Z,3.70
2018-04-29T21:01:25.671Z,4.23
2018-04-29T21:03:53.131Z,4.00
2018-04-29T21:06:20.599Z,4.30
2018-04-29T21:08:48.050Z,3.93
2018-04-29T21:11:15.514Z,3.40
2018-04-29T21:13:43.048Z,3.53
2018-04-29T21:16:10.574Z,3.90
2018-04-29T21:18:38.808Z,3.90
2018-04-29T21:21:06.260Z,4.00
2018-04-29T21:23:33.736Z,3.90
2018-04-29T21:26:01.198Z,3.73
2018-04-29T21:28:28.668Z,3.50
2018-04-29T21:30:56.882Z,3.50
2018-04-29T21:33:24.352Z,4.17
2018-04-29T21:35:51.825Z,4.30
2018-04-29T21:38:19.397Z,4.03
2018-04-29T21:40:46.854Z,4.57
2018-04-29T21:43:14.332Z,4.23
2018-04-29T21:45:42.573Z,5.40
2018-04-29T21:48:10.438Z,4.53
2018-04-29T21:50:37.917Z,3.70
2018-04-29T21:53:05.401Z,4.00
2018-04-29T21:55:33.638Z,3.73
2018-04-29T21:58:01.109Z,4.13
2018-04-29T22:00:28.673Z,4.37
2018-04-29T22:02:56.130Z,3.80
2018-04-29T22:05:24.492Z,4.03
2018-04-29T22:07:51.990Z,4.83
2018-04-29T22:10:19.456Z,4.07
2018-04-29T22:12:46.906Z,4.77
2018-04-29T22:15:14.427Z,5.23
2018-04-29T22:17:42.907Z,4.80
2018-04-29T22:20:10.410Z,4.83
2018-04-29T22:22:37.855Z,5.10
2018-04-29T22:25:05.367Z,4.47
2018-04-29T22:27:32.827Z,5.30
2018-04-29T22:30:00.289Z,5.23
2018-04-29T22:32:29.317Z,4.77
2018-04-29T22:34:56.770Z,4.67
2018-04-29T22:37:24.228Z,5.07
2018-04-29T22:39:51.708Z,6.13
2018-04-29T22:42:19.209Z,6.10
2018-04-29T22:44:46.672Z,5.30
2018-04-29T22:47:14.132Z,4.73
2018-04-29T22:49:41.598Z,4.97
2018-04-29T22:52:09.906Z,5.20
2018-04-29T22:54:37.449Z,5.13
2018-04-29T22:57:04.908Z,5.10
2018-04-29T22:59:32.376Z,6.00
2018-04-29T23:01:59.884Z,5.40
2018-04-29T23:04:27.439Z,5.73
2018-04-29T23:06:54.938Z,5.50
2018-04-29T23:09:22.407Z,5.27
2018-04-29T23:11:49.922Z,5.80
2018-04-29T23:14:17.404Z,5.80
2018-04-29T23:16:44.937Z,6.20
2018-04-29T23:19:12.480Z,5.87
2018-04-29T23:21:40.039Z,5.70
2018-04-29T23:24:08.172Z,6.57
2018-04-29T23:26:35.741Z,5.60
2018-04-29T23:29:04.150Z,5.90
2018-04-29T23:31:31.614Z,5.90
2018-04-29T23:33:59.071Z,6.20
2018-04-29T23:36:26.619Z,5.77
2018-04-29T23:38:54.074Z,5.87
2018-04-29T23:41:22.121Z,6.03
2018-04-29T23:43:49.598Z,6.10
2018-04-29T23:46:17.166Z,6.37
2018-04-29T23:48:45.445Z,5.97
2018-04-29T23:51:12.925Z,7.17
2018-04-29T23:53:41.170Z,6.03
2018-04-29T23:56:08.638Z,6.17
2018-04-29T23:58:37.599Z,6.40
